메인 페이지
METAR-TAF:

METAR-TAF

공항 :

차트라파티 시바지 국제공항

뭄바이, 인도

위도: 19-07N, 경도: 072-51E, 고도: 8m

현재 날씨관측

예보는 27분 전, 23:00시(UTC)에 발표되었습니다.
무풍
온도 25°C
습도 57%
기압 1011 hPa
시정: 2500m
연무

METAR: VABB 192300Z 00000KT 2500 HZ NSC 25/16 Q1011 NOSIG

시각: 04:57 (23:27 UTC)

예보

예보는 3 시간 27분 전, 20:00시(UTC)에 발표되었습니다.
예보 대상 시간: 19일 21시부터 20일 06시까지 (UTC)
5kt
시정: 2500m
고도 10000ft 상공 구름 조금
연무
전환 중
20일 00시부터 20일 02시까지 (UTC)
시정: 2000m
연무
전환 중
20일 04시부터 20일 06시까지 (UTC)
시정: 2500m
연무

TAF: VABB 192000Z 1921/2006 35005KT 2500 HZ FEW100 BECMG 2000/2002 2000 HZ BECMG 2004/2006 2500 HZ

4,000개 이상의 공항 관측 자료 및 예보 (METAR 및 TAF 보고).

지도상에서 검색 가능한 기상관측소가 노란 점과 빨간 점으로 표시되어 있습니다.

기상관측소 명을 보려면 표시 위로 마우스를 이동하세요.

날씨 관측과 예보를 보려면 클릭하세요.

지도 변경 : 확대하려면 엑스 표시가 있는 녹색 버튼, 축소하려면 빼기 표시가 있는 녹색 버튼, 다음 페이지의 지도를 보려면 녹색 화살표를 클릭하세요.


METAR-TAF: